Huvudsida
METAR-TAF:

METAR-TAF

Flygplatser :

Cervia, Italien

latitud: 44-13N, longitud: 012-18E, höjd: 6 m

Aktuellt väderrapport

Denna rapport gjordes för 27 minuter sedan, klockan 22:18 UTC
Vind 2 kt från nordväst
Temperatur 7°C
Fuktighet 87%
Tryck 1006 hPa
Sikt: 0500 m
dimma

METAR: LIPC 152218Z 32002KT 0500 R11/0550 FG NSC 07/05 Q1006 RMK SKC VIS MIN 0500 WIND THR11 /////KT WIND THR29 01002KT RED

Tid: 23:45 (22:45 UTC)

Väderprognos

Denna rapport gjordes för 2 timmar och 45 minuter sedan, klockan 20:00 UTC
Prognos gäller från 15 kl. 21 UTC till 16 kl. 06 UTC
Vind 5 kt från ost/sydost
Sikt: 5000 m
Spridda moln på en höjd av 2500 ft
Brutna moln på en höjd av 5000 ft
regn, fuktdis
Sannolikhet 30% :
Temporärt
från 16 kl. 01 UTC till 16 kl. 06 UTC
Sikt: 3000 m
fuktdis

TAF: LIPC 152000Z 1521/1606 11005KT 5000 RA BR SCT025 BKN050 PROB30 TEMPO 1601/1606 3000 BR

Aktuella väderrapporter och prognoser från 4000 flygplatser (METAR- och TAF-rapporter).

De tillgängliga stationerna syns som gula och röda prickar på kartan.

För musen över prickarna för att se namnen på stationerna.

Klicka sedan för att få väderrapporter och prognoser.

För att ändra kartan: Klicka på de gröna knapparna med ett svart kors på för att zooma in; den gröna knappen med ett streck på för att zooma ut; eller på de gröna pilarna för angränsande kartor.


METAR-TAF: